createdAt,value
2023-05-20T00:01:17.596Z,2.75
2023-05-20T00:03:46.705Z,3.50
2023-05-20T00:06:15.148Z,6.00
2023-05-20T00:08:43.367Z,2.75
2023-05-20T00:11:11.582Z,2.75
2023-05-20T00:13:39.916Z,0.00
2023-05-20T00:16:08.245Z,0.75
2023-05-20T00:18:38.066Z,2.00
2023-05-20T00:21:06.506Z,2.00
2023-05-20T00:23:34.711Z,5.00
2023-05-20T00:26:02.853Z,2.00
2023-05-20T00:28:31.124Z,3.50
2023-05-20T00:30:59.417Z,2.75
2023-05-20T00:33:27.607Z,1.50
2023-05-20T00:35:57.336Z,1.00
2023-05-20T00:38:25.495Z,1.75
2023-05-20T00:40:53.786Z,1.75
2023-05-20T00:43:22.811Z,4.00
2023-05-20T00:45:51.386Z,2.75
2023-05-20T00:48:19.912Z,2.00
2023-05-20T00:50:48.558Z,2.25
2023-05-20T00:53:19.078Z,2.00
2023-05-20T00:55:47.249Z,1.75
2023-05-20T00:58:15.482Z,1.00
2023-05-20T01:00:44.229Z,2.00
2023-05-20T01:03:12.977Z,3.00
2023-05-20T01:05:42.374Z,1.00
2023-05-20T01:08:11.026Z,0.25
2023-05-20T01:10:42.983Z,2.00
2023-05-20T01:13:12.969Z,1.00
2023-05-20T01:15:41.900Z,2.75
2023-05-20T01:18:10.821Z,2.75
2023-05-20T01:20:39.594Z,1.75
2023-05-20T01:23:09.204Z,2.00
2023-05-20T01:25:37.502Z,2.25
2023-05-20T01:28:06.118Z,2.00
2023-05-20T01:30:37.274Z,1.25
2023-05-20T01:33:07.443Z,1.50
2023-05-20T01:35:36.604Z,1.00
2023-05-20T01:38:06.373Z,1.25
2023-05-20T01:40:36.374Z,1.75
2023-05-20T01:43:04.822Z,1.75
2023-05-20T01:45:33.328Z,1.75
2023-05-20T01:48:01.944Z,1.75
2023-05-20T01:50:30.434Z,1.50
2023-05-20T01:52:58.566Z,2.00
2023-05-20T01:55:26.920Z,2.00
2023-05-20T01:57:57.538Z,1.50
2023-05-20T02:00:27.003Z,1.00
2023-05-20T02:02:55.187Z,1.00
2023-05-20T02:05:23.426Z,1.25
2023-05-20T02:07:51.938Z,2.00
2023-05-20T02:10:22.443Z,1.75
2023-05-20T02:12:50.678Z,2.00
2023-05-20T02:15:20.493Z,1.75
2023-05-20T02:17:49.632Z,0.00
2023-05-20T02:20:17.867Z,1.50
2023-05-20T02:22:46.019Z,1.00
2023-05-20T02:25:14.217Z,1.00
2023-05-20T02:27:42.781Z,0.25
2023-05-20T02:30:11.198Z,2.00
2023-05-20T02:32:40.887Z,2.00
2023-05-20T02:35:09.436Z,1.00
2023-05-20T02:37:39.182Z,2.25
2023-05-20T02:40:09.439Z,1.00
2023-05-20T02:42:39.539Z,1.25
2023-05-20T02:45:09.358Z,0.50
2023-05-20T02:47:37.469Z,1.00
2023-05-20T02:50:09.022Z,1.00
2023-05-20T02:52:40.083Z,1.50
2023-05-20T02:55:09.132Z,2.50
2023-05-20T02:57:38.490Z,1.75
2023-05-20T03:00:11.761Z,2.00
2023-05-20T03:02:40.169Z,1.00
2023-05-20T03:05:11.076Z,0.50
2023-05-20T03:07:39.559Z,1.00
2023-05-20T03:10:09.486Z,0.25
2023-05-20T03:12:40.195Z,1.00
2023-05-20T03:15:10.950Z,1.50
2023-05-20T03:17:39.319Z,1.00
2023-05-20T03:20:12.496Z,1.00
2023-05-20T03:22:42.072Z,1.75
2023-05-20T03:25:10.970Z,2.00
2023-05-20T03:27:39.181Z,1.00
2023-05-20T03:30:08.280Z,1.00
2023-05-20T03:32:36.616Z,1.00
2023-05-20T03:35:05.080Z,1.75
2023-05-20T03:37:35.240Z,1.25
2023-05-20T03:40:06.350Z,1.00
2023-05-20T03:42:36.167Z,2.50
2023-05-20T03:45:05.258Z,1.50
2023-05-20T03:47:38.636Z,1.00
2023-05-20T03:50:08.096Z,1.00
2023-05-20T03:52:38.585Z,1.00
2023-05-20T03:55:08.062Z,1.00
2023-05-20T03:57:36.758Z,0.75
2023-05-20T04:00:10.325Z,0.50
2023-05-20T04:02:45.217Z,1.00
2023-05-20T04:05:17.434Z,1.00
2023-05-20T04:07:47.471Z,1.00
2023-05-20T04:10:16.177Z,1.00
2023-05-20T04:12:45.736Z,0.00
2023-05-20T04:15:15.141Z,1.00
2023-05-20T04:17:55.045Z,1.50
2023-05-20T04:20:24.556Z,1.75
2023-05-20T04:22:57.700Z,0.50
2023-05-20T04:25:26.310Z,1.00
2023-05-20T04:27:55.493Z,0.00
2023-05-20T04:30:23.949Z,3.00
2023-05-20T04:32:52.354Z,1.00
2023-05-20T04:35:20.979Z,0.25
2023-05-20T04:37:54.086Z,1.50
2023-05-20T04:40:23.881Z,0.75
2023-05-20T04:42:54.569Z,1.00
2023-05-20T04:45:23.492Z,0.25
2023-05-20T04:47:53.639Z,2.50
2023-05-20T04:50:22.655Z,2.00
2023-05-20T04:52:51.826Z,2.00
2023-05-20T04:55:21.696Z,1.00
2023-05-20T04:57:51.657Z,1.00
2023-05-20T05:00:20.052Z,2.00
2023-05-20T05:02:48.656Z,3.00
2023-05-20T05:05:17.615Z,2.00
2023-05-20T05:07:45.831Z,2.25
2023-05-20T05:10:15.898Z,1.25
2023-05-20T05:12:44.070Z,1.00
2023-05-20T05:15:13.782Z,2.00
2023-05-20T05:17:44.303Z,0.75
2023-05-20T05:20:13.743Z,1.00
2023-05-20T05:22:42.313Z,1.75
2023-05-20T05:25:11.201Z,0.50
2023-05-20T05:27:39.457Z,1.00
2023-05-20T05:30:09.054Z,2.00
2023-05-20T05:32:38.966Z,1.25
2023-05-20T05:35:08.479Z,2.00
2023-05-20T05:37:37.024Z,2.00
2023-05-20T05:40:08.321Z,1.00
2023-05-20T05:42:36.668Z,1.25
2023-05-20T05:45:05.301Z,0.00
2023-05-20T05:47:35.278Z,1.00
2023-05-20T05:50:05.098Z,1.00
2023-05-20T05:52:35.292Z,0.50
2023-05-20T05:55:05.297Z,1.00
2023-05-20T05:57:34.163Z,0.00
2023-05-20T06:00:03.749Z,0.50
2023-05-20T06:02:47.132Z,1.00
2023-05-20T06:05:30.110Z,2.00
2023-05-20T06:07:58.996Z,2.25
2023-05-20T06:10:28.043Z,1.00
2023-05-20T06:12:57.059Z,0.00
2023-05-20T06:15:26.586Z,2.00
2023-05-20T06:17:55.000Z,1.00
2023-05-20T06:20:23.556Z,1.00
2023-05-20T06:22:53.278Z,1.25
2023-05-20T06:25:23.261Z,0.25
2023-05-20T06:27:53.033Z,2.25
2023-05-20T06:30:23.063Z,2.50
2023-05-20T06:32:51.835Z,1.00
2023-05-20T06:35:20.207Z,1.00
2023-05-20T06:37:48.528Z,1.00
2023-05-20T06:40:19.453Z,3.00
2023-05-20T06:42:48.536Z,0.75
2023-05-20T06:45:16.847Z,1.25
2023-05-20T06:47:51.411Z,0.40
2023-05-20T06:50:19.950Z,0.75
2023-05-20T06:52:48.326Z,1.75
2023-05-20T06:55:18.722Z,1.50
2023-05-20T06:57:48.512Z,0.00
2023-05-20T07:00:19.457Z,1.00
2023-05-20T07:02:47.829Z,1.00
2023-05-20T07:05:16.557Z,0.50
2023-05-20T07:07:44.771Z,0.75
2023-05-20T07:10:13.253Z,2.00
2023-05-20T07:12:42.976Z,2.00
2023-05-20T07:15:11.863Z,1.00
2023-05-20T07:17:41.017Z,1.50
2023-05-20T07:20:09.868Z,1.00
2023-05-20T07:22:38.325Z,0.75
2023-05-20T07:25:22.004Z,0.75
2023-05-20T07:27:52.112Z,1.00
2023-05-20T07:30:20.387Z,1.25
2023-05-20T07:33:00.183Z,2.00
2023-05-20T07:35:29.406Z,1.25
2023-05-20T07:37:57.679Z,2.25
2023-05-20T07:40:26.018Z,2.50
2023-05-20T07:42:55.835Z,0.50
2023-05-20T07:45:24.045Z,1.25
2023-05-20T07:47:52.358Z,2.00
2023-05-20T07:50:20.848Z,1.00
2023-05-20T07:55:24.426Z,1.75
2023-05-20T07:57:53.458Z,2.00
2023-05-20T08:00:24.834Z,2.50
2023-05-20T08:02:53.353Z,1.50
2023-05-20T08:05:29.518Z,1.75
2023-05-20T08:08:01.211Z,2.00
2023-05-20T08:10:33.646Z,3.00
2023-05-20T08:13:01.952Z,2.50
2023-05-20T08:15:33.284Z,2.50
2023-05-20T08:18:02.119Z,3.00
2023-05-20T08:20:31.124Z,2.00
2023-05-20T08:22:59.463Z,2.00
2023-05-20T08:25:27.769Z,2.00
2023-05-20T08:27:57.224Z,1.00
2023-05-20T08:30:28.214Z,1.50
2023-05-20T08:32:58.083Z,2.50
2023-05-20T08:35:27.943Z,2.75
2023-05-20T08:37:56.371Z,2.00
2023-05-20T08:40:25.171Z,2.25
2023-05-20T08:42:53.740Z,1.00
2023-05-20T08:45:27.995Z,2.50
2023-05-20T08:48:05.239Z,2.00
2023-05-20T08:50:33.755Z,2.00
2023-05-20T08:53:01.973Z,2.75
2023-05-20T08:55:35.046Z,2.00
2023-05-20T08:58:04.804Z,3.75
2023-05-20T09:00:33.087Z,0.00
2023-05-20T09:03:02.997Z,2.00
2023-05-20T09:05:31.592Z,2.50
2023-05-20T09:08:07.253Z,3.25
2023-05-20T09:10:35.805Z,2.00
2023-05-20T09:13:04.725Z,2.00
2023-05-20T09:15:33.982Z,4.50
2023-05-20T09:18:04.501Z,2.00
2023-05-20T09:20:34.002Z,0.00
2023-05-20T09:23:02.720Z,3.00
2023-05-20T09:25:30.968Z,1.25
2023-05-20T09:27:59.166Z,1.00
2023-05-20T09:30:27.731Z,0.00
2023-05-20T09:32:56.648Z,3.00
2023-05-20T09:35:27.365Z,0.00
2023-05-20T09:37:56.694Z,2.00
2023-05-20T09:40:26.376Z,2.00
2023-05-20T09:42:55.601Z,1.00
2023-05-20T09:45:24.787Z,2.75
2023-05-20T09:47:53.751Z,3.00
2023-05-20T09:50:23.791Z,3.75
2023-05-20T09:52:54.996Z,2.50
2023-05-20T09:55:24.554Z,2.00
2023-05-20T09:57:53.089Z,1.00
2023-05-20T10:00:21.920Z,3.00
2023-05-20T10:02:52.218Z,3.25
2023-05-20T10:05:22.835Z,3.00
2023-05-20T10:08:01.186Z,3.50
2023-05-20T10:10:35.328Z,3.50
2023-05-20T10:13:08.696Z,6.00
2023-05-20T10:15:44.321Z,4.00
2023-05-20T10:18:16.743Z,3.00
2023-05-20T10:20:48.706Z,1.50
2023-05-20T10:23:25.065Z,3.00
2023-05-20T10:25:53.897Z,2.00
2023-05-20T10:28:31.809Z,2.25
2023-05-20T10:31:00.455Z,3.00
2023-05-20T10:33:29.237Z,4.00
2023-05-20T10:35:59.918Z,1.75
2023-05-20T10:38:29.601Z,2.25
2023-05-20T10:41:09.363Z,2.00
2023-05-20T10:43:37.591Z,2.00
2023-05-20T10:46:10.549Z,2.75
2023-05-20T10:48:45.907Z,1.50
2023-05-20T10:51:15.528Z,1.00
2023-05-20T10:53:47.337Z,2.25
2023-05-20T10:56:18.932Z,3.25
2023-05-20T10:58:47.592Z,2.75
2023-05-20T11:01:16.628Z,0.50
2023-05-20T11:03:46.569Z,1.00
2023-05-20T11:06:16.154Z,3.00
2023-05-20T11:08:47.745Z,2.25
2023-05-20T11:11:16.466Z,1.00
2023-05-20T11:13:44.692Z,2.50
2023-05-20T11:16:12.990Z,2.00
2023-05-20T11:18:41.290Z,2.75
2023-05-20T11:21:09.638Z,3.00
2023-05-20T11:23:40.480Z,2.25
2023-05-20T11:26:10.436Z,2.50
2023-05-20T11:28:39.470Z,1.50
2023-05-20T11:31:08.035Z,3.00
2023-05-20T11:33:36.314Z,2.75
2023-05-20T11:36:08.599Z,2.25
2023-05-20T11:38:38.993Z,3.00
2023-05-20T11:41:07.212Z,3.25
2023-05-20T11:43:37.460Z,2.00
2023-05-20T11:46:06.974Z,2.00
2023-05-20T11:48:35.258Z,3.50
2023-05-20T11:51:06.774Z,0.75
2023-05-20T11:53:34.962Z,2.00
2023-05-20T11:56:03.118Z,3.25
2023-05-20T11:58:31.927Z,4.25
2023-05-20T12:01:13.257Z,3.50
2023-05-20T12:03:50.090Z,5.00
2023-05-20T12:06:18.600Z,3.50
2023-05-20T12:08:47.612Z,4.00
2023-05-20T12:11:15.995Z,6.00
2023-05-20T12:13:44.172Z,3.00
2023-05-20T12:16:13.806Z,2.50
2023-05-20T12:18:42.092Z,2.25
2023-05-20T12:21:10.482Z,3.75
2023-05-20T12:23:38.742Z,4.50
2023-05-20T12:26:07.070Z,3.00
2023-05-20T12:28:35.317Z,2.50
2023-05-20T12:31:03.635Z,1.00
2023-05-20T12:33:33.380Z,1.75
2023-05-20T12:36:01.629Z,3.00
2023-05-20T12:38:29.856Z,3.75
2023-05-20T12:40:58.178Z,5.00
2023-05-20T12:43:26.457Z,2.00
2023-05-20T12:45:54.773Z,4.50
2023-05-20T12:48:23.188Z,4.00
2023-05-20T12:50:53.019Z,3.00
2023-05-20T12:53:21.231Z,4.50
2023-05-20T12:55:49.560Z,1.67
2023-05-20T12:58:17.828Z,1.00
2023-05-20T13:00:46.054Z,2.25
2023-05-20T13:03:14.456Z,3.75
2023-05-20T13:05:43.094Z,4.00
2023-05-20T13:08:13.090Z,4.00
2023-05-20T13:10:42.004Z,3.00
2023-05-20T13:13:10.260Z,4.50
2023-05-20T13:15:38.460Z,1.00
2023-05-20T13:18:07.292Z,3.50
2023-05-20T13:20:35.908Z,3.75
2023-05-20T13:23:04.325Z,3.00
2023-05-20T13:25:33.936Z,3.50
2023-05-20T13:28:02.819Z,3.00
2023-05-20T13:30:31.159Z,2.00
2023-05-20T13:32:59.581Z,4.50
2023-05-20T13:35:27.803Z,3.00
2023-05-20T13:37:55.963Z,2.00
2023-05-20T13:40:24.539Z,5.50
2023-05-20T13:42:54.324Z,2.00
2023-05-20T13:45:23.497Z,5.00
2023-05-20T13:47:51.745Z,3.50
2023-05-20T13:50:20.482Z,5.00
2023-05-20T13:52:49.851Z,3.50
2023-05-20T13:55:18.133Z,4.00
2023-05-20T13:57:47.541Z,4.00
2023-05-20T14:00:18.218Z,4.75
2023-05-20T14:02:46.750Z,4.50
2023-05-20T14:05:15.046Z,7.50
2023-05-20T14:07:43.274Z,6.00
2023-05-20T14:10:11.678Z,6.00
2023-05-20T14:12:39.882Z,4.25
2023-05-20T14:15:08.789Z,5.00
2023-05-20T14:17:39.095Z,3.50
2023-05-20T14:20:08.324Z,6.00
2023-05-20T14:22:36.596Z,4.00
2023-05-20T14:25:05.130Z,3.50
2023-05-20T14:27:33.579Z,4.00
2023-05-20T14:30:01.881Z,3.00
2023-05-20T14:32:32.854Z,4.75
2023-05-20T14:35:02.522Z,1.75
2023-05-20T14:37:33.830Z,2.75
2023-05-20T14:40:02.515Z,1.00
2023-05-20T14:42:32.277Z,3.75
2023-05-20T14:45:00.505Z,4.50
2023-05-20T14:47:28.851Z,3.25
2023-05-20T14:49:57.298Z,2.25
2023-05-20T14:52:26.981Z,3.75
2023-05-20T14:54:56.843Z,5.00
2023-05-20T14:57:25.151Z,4.25
2023-05-20T14:59:53.522Z,1.00
2023-05-20T15:02:21.986Z,4.50
2023-05-20T15:04:50.552Z,1.25
2023-05-20T15:07:18.742Z,3.00
2023-05-20T15:09:50.106Z,6.75
2023-05-20T15:12:18.419Z,5.00
2023-05-20T15:14:46.856Z,3.00
2023-05-20T15:17:15.192Z,2.50
2023-05-20T15:19:43.541Z,2.75
2023-05-20T15:22:11.786Z,10.00
2023-05-20T15:24:40.278Z,3.00
2023-05-20T15:27:09.865Z,9.25
2023-05-20T15:29:38.912Z,19.25
2023-05-20T15:32:09.074Z,4.75
2023-05-20T15:34:37.281Z,4.25
2023-05-20T15:37:05.671Z,15.25
2023-05-20T15:39:33.948Z,4.50
2023-05-20T15:42:03.073Z,8.00
2023-05-20T15:44:32.706Z,30.80
2023-05-20T15:47:01.128Z,26.25
2023-05-20T15:49:29.413Z,4.75
2023-05-20T15:52:03.602Z,3.00
2023-05-20T15:54:32.820Z,5.25
2023-05-20T15:57:01.198Z,1.50
2023-05-20T15:59:29.464Z,22.75
2023-05-20T16:01:59.181Z,3.00
2023-05-20T16:04:27.473Z,8.75
2023-05-20T16:06:56.081Z,8.00
2023-05-20T16:09:24.373Z,4.00
2023-05-20T16:11:52.647Z,5.00
2023-05-20T16:14:21.260Z,6.50
2023-05-20T16:16:49.681Z,8.75
2023-05-20T16:19:19.647Z,3.50
2023-05-20T16:21:47.940Z,3.75
2023-05-20T16:24:16.740Z,7.25
2023-05-20T16:26:44.990Z,4.25
2023-05-20T16:29:15.666Z,6.00
2023-05-20T16:31:47.015Z,5.00
2023-05-20T16:34:16.120Z,5.25
2023-05-20T16:36:46.635Z,4.75
2023-05-20T16:39:16.044Z,4.00
2023-05-20T16:41:44.606Z,5.25
2023-05-20T16:44:12.928Z,4.00
2023-05-20T16:46:41.475Z,3.50
2023-05-20T16:49:09.761Z,7.75
2023-05-20T16:51:38.248Z,6.00
2023-05-20T16:54:08.339Z,7.25
2023-05-20T16:56:37.266Z,9.50
2023-05-20T16:59:06.349Z,4.00
2023-05-20T17:01:34.646Z,3.00
2023-05-20T17:04:02.986Z,7.00
2023-05-20T17:06:34.292Z,3.25
2023-05-20T17:09:04.788Z,6.50
2023-05-20T17:11:34.575Z,6.25
2023-05-20T17:14:03.192Z,6.25
2023-05-20T17:16:31.527Z,7.75
2023-05-20T17:18:59.991Z,9.00
2023-05-20T17:21:28.417Z,10.50
2023-05-20T17:23:56.658Z,13.75
2023-05-20T17:26:25.381Z,10.75
2023-05-20T17:28:54.952Z,14.00
2023-05-20T17:31:23.208Z,13.75
2023-05-20T17:33:51.567Z,8.75
2023-05-20T17:36:22.185Z,10.00
2023-05-20T17:38:50.345Z,12.00
2023-05-20T17:41:19.210Z,8.75
2023-05-20T17:43:48.045Z,10.25
2023-05-20T17:46:18.342Z,8.00
2023-05-20T17:48:46.706Z,10.00
2023-05-20T17:51:15.028Z,8.50
2023-05-20T17:53:43.608Z,9.25
2023-05-20T17:56:11.908Z,12.75
2023-05-20T17:58:40.240Z,16.75
2023-05-20T18:01:09.636Z,19.00
2023-05-20T18:03:40.877Z,13.00
2023-05-20T18:06:09.538Z,16.00
2023-05-20T18:08:37.965Z,16.00
2023-05-20T18:11:06.249Z,15.00
2023-05-20T18:13:34.688Z,15.50
2023-05-20T18:16:02.977Z,20.50
2023-05-20T18:18:31.413Z,20.75
2023-05-20T18:21:01.281Z,16.25
2023-05-20T18:23:29.571Z,20.50
2023-05-20T18:25:57.881Z,17.50
2023-05-20T18:28:26.210Z,16.00
2023-05-20T18:30:56.055Z,15.25
2023-05-20T18:33:26.000Z,18.00
2023-05-20T18:35:55.188Z,20.75
2023-05-20T18:38:25.060Z,19.00
2023-05-20T18:40:53.660Z,20.75
2023-05-20T18:43:22.017Z,15.50
2023-05-20T18:45:55.330Z,20.00
2023-05-20T18:48:27.113Z,21.50
2023-05-20T18:50:58.797Z,80.20
2023-05-20T18:53:29.030Z,21.00
2023-05-20T18:56:01.557Z,15.25
2023-05-20T18:58:30.883Z,14.75
2023-05-20T19:00:59.621Z,18.00
2023-05-20T19:03:28.171Z,21.50
2023-05-20T19:05:56.626Z,21.75
2023-05-20T19:08:25.251Z,21.50
2023-05-20T19:10:54.954Z,19.50
2023-05-20T19:13:23.284Z,21.00
2023-05-20T19:15:51.590Z,16.75
2023-05-20T19:18:21.541Z,19.50
2023-05-20T19:20:49.853Z,18.75
2023-05-20T19:23:18.108Z,23.75
2023-05-20T19:25:46.907Z,23.50
2023-05-20T19:28:16.671Z,22.50
2023-05-20T19:30:44.978Z,18.75
2023-05-20T19:33:13.237Z,20.00
2023-05-20T19:35:41.845Z,19.75
2023-05-20T19:38:10.257Z,18.75
2023-05-20T19:40:39.635Z,21.25
2023-05-20T19:43:07.976Z,16.00
2023-05-20T19:45:37.887Z,17.75
2023-05-20T19:48:06.862Z,12.50
2023-05-20T19:50:35.497Z,14.75
2023-05-20T19:53:06.575Z,13.75
2023-05-20T19:55:35.760Z,22.00
2023-05-20T19:58:04.359Z,13.00
2023-05-20T20:00:32.535Z,19.50
2023-05-20T20:03:03.485Z,18.00
2023-05-20T20:05:31.929Z,26.50
2023-05-20T20:08:00.252Z,16.50
2023-05-20T20:10:30.828Z,19.25
2023-05-20T20:12:59.110Z,17.75
2023-05-20T20:15:27.372Z,19.50
2023-05-20T20:17:55.940Z,20.00
2023-05-20T20:20:26.679Z,17.25
2023-05-20T20:22:54.907Z,19.00
2023-05-20T20:25:23.562Z,18.00
2023-05-20T20:27:51.868Z,21.25
2023-05-20T20:30:21.729Z,9.25
2023-05-20T20:32:50.228Z,18.25
2023-05-20T20:35:18.521Z,17.00
2023-05-20T20:37:48.192Z,21.50
2023-05-20T20:40:16.567Z,19.75
2023-05-20T20:42:48.525Z,17.75
2023-05-20T20:45:17.077Z,13.50
2023-05-20T20:47:45.839Z,17.75
2023-05-20T20:50:14.462Z,15.50
2023-05-20T20:52:43.590Z,15.25
2023-05-20T20:55:13.370Z,21.75
2023-05-20T20:57:42.165Z,17.50
2023-05-20T21:00:17.738Z,12.25
2023-05-20T21:02:46.778Z,19.25
2023-05-20T21:05:17.083Z,16.00
2023-05-20T21:07:46.673Z,23.25
2023-05-20T21:10:16.538Z,22.25
2023-05-20T21:12:45.758Z,20.00
2023-05-20T21:15:15.193Z,15.75
2023-05-20T21:17:43.483Z,17.00
2023-05-20T21:20:12.552Z,19.75
2023-05-20T21:22:40.809Z,20.75
2023-05-20T21:25:09.830Z,21.25
2023-05-20T21:27:39.836Z,18.50
2023-05-20T21:30:08.794Z,19.50
2023-05-20T21:32:37.185Z,19.25
2023-05-20T21:35:05.866Z,17.00
2023-05-20T21:37:34.637Z,20.75
2023-05-20T21:40:02.900Z,17.75
2023-05-20T21:42:33.421Z,11.25
2023-05-20T21:45:03.073Z,20.75
2023-05-20T21:47:34.236Z,20.00
2023-05-20T21:50:03.635Z,19.75
2023-05-20T21:52:33.303Z,20.75
2023-05-20T21:55:01.494Z,21.00
2023-05-20T21:57:32.192Z,19.50
2023-05-20T22:00:00.322Z,20.00
2023-05-20T22:02:30.103Z,17.00
2023-05-20T22:05:00.437Z,26.50
2023-05-20T22:07:28.902Z,19.75
2023-05-20T22:09:57.146Z,19.50
2023-05-20T22:12:25.577Z,18.75
2023-05-20T22:14:53.765Z,27.25
2023-05-20T22:17:21.966Z,19.00
2023-05-20T22:19:51.958Z,16.75
2023-05-20T22:22:20.175Z,19.25
2023-05-20T22:24:48.332Z,21.25
2023-05-20T22:27:16.453Z,20.75
2023-05-20T22:29:44.663Z,27.00
2023-05-20T22:32:12.794Z,19.00
2023-05-20T22:34:41.190Z,24.50
2023-05-20T22:37:11.923Z,23.75
2023-05-20T22:39:40.269Z,23.50
2023-05-20T22:42:08.378Z,22.75
2023-05-20T22:44:36.496Z,14.50
2023-05-20T22:47:04.797Z,17.00
2023-05-20T22:49:33.162Z,20.00
2023-05-20T22:52:01.770Z,23.25
2023-05-20T22:54:31.446Z,21.50
2023-05-20T22:57:00.201Z,20.00
2023-05-20T22:59:31.164Z,20.00
2023-05-20T23:01:59.449Z,21.50
2023-05-20T23:04:27.742Z,18.75
2023-05-20T23:06:58.591Z,25.00
2023-05-20T23:09:27.494Z,24.75
2023-05-20T23:11:57.024Z,17.50
2023-05-20T23:14:26.129Z,24.00
2023-05-20T23:16:54.353Z,27.00
2023-05-20T23:19:22.896Z,24.50
2023-05-20T23:21:51.241Z,23.25
2023-05-20T23:24:19.388Z,23.50
2023-05-20T23:26:47.663Z,24.50
2023-05-20T23:29:17.236Z,20.50
2023-05-20T23:31:45.356Z,21.00
2023-05-20T23:34:13.617Z,27.75
2023-05-20T23:36:42.264Z,22.75
2023-05-20T23:39:10.645Z,27.75
2023-05-20T23:41:39.000Z,20.00
2023-05-20T23:44:07.145Z,20.00
2023-05-20T23:46:38.224Z,22.00
2023-05-20T23:49:06.873Z,23.75
2023-05-20T23:51:35.639Z,19.50
2023-05-20T23:54:03.773Z,21.50
2023-05-20T23:56:31.934Z,21.25
2023-05-20T23:59:00.053Z,24.75
